Time;durP1;ratioP1;P1;durP2;ratioP2;P2;SDS_P1;SDS_P2;PMS_P1;PMS_P2;Temp;Humidity;BMP_temperature;BMP_pressure;BME280_temperature;BME280_humidity;BME280_pressure;Samples;Min_cycle;Max_cycle;Signal;HPM_P1;HPM_P2
2021/06/28 00:00:33;;;;;;;10.80;9.73;;;23.00;75.70;;;;;;5013073;28;20121;-52
2021/06/28 00:03:00;;;;;;;10.45;9.50;;;23.00;76.30;;;;;;5013664;28;20029;-50
2021/06/28 00:05:26;;;;;;;11.52;10.43;;;23.00;76.20;;;;;;5014408;28;20026;-57
2021/06/28 00:07:52;;;;;;;10.88;9.88;;;23.00;76.40;;;;;;5013330;28;20091;-52
2021/06/28 00:10:21;;;;;;;11.80;10.70;;;23.00;76.30;;;;;;5018766;28;20064;-51
2021/06/28 00:12:47;;;;;;;11.02;9.95;;;23.00;76.30;;;;;;5015201;28;20022;-49
2021/06/28 00:15:16;;;;;;;12.82;11.55;;;23.10;76.60;;;;;;5014807;28;20440;-52
2021/06/28 00:17:42;;;;;;;13.73;11.65;;;23.00;77.30;;;;;;5019040;28;20109;-50
2021/06/28 00:20:10;;;;;;;11.55;10.45;;;23.00;77.80;;;;;;5028695;28;20025;-49
2021/06/28 00:22:36;;;;;;;13.55;9.88;;;23.00;78.00;;;;;;5032301;28;20044;-54
2021/06/28 00:25:04;;;;;;;10.32;9.15;;;23.00;78.50;;;;;;5033968;28;20029;-56
2021/06/28 00:27:30;;;;;;;10.38;9.48;;;22.90;78.80;;;;;;5033398;28;20177;-51
2021/06/28 00:29:55;;;;;;;9.82;8.93;;;22.90;79.10;;;;;;5020045;28;20096;-53
2021/06/28 00:32:21;;;;;;;10.23;9.07;;;22.90;78.20;;;;;;5033055;28;20112;-53
2021/06/28 00:34:46;;;;;;;9.93;8.98;;;22.70;78.70;;;;;;5033278;28;20032;-54
2021/06/28 00:37:12;;;;;;;10.98;9.85;;;22.60;79.40;;;;;;5033819;28;20112;-55
2021/06/28 00:39:38;;;;;;;10.43;9.52;;;22.40;80.60;;;;;;5033675;28;20063;-58
2021/06/28 00:42:04;;;;;;;11.32;10.32;;;22.20;81.80;;;;;;5015730;28;20048;-49
2021/06/28 00:44:29;;;;;;;12.77;11.52;;;22.20;82.40;;;;;;5033480;28;20029;-54
2021/06/28 00:46:55;;;;;;;13.65;12.32;;;22.30;82.90;;;;;;5032672;28;20113;-51
2021/06/28 00:49:20;;;;;;;17.13;12.45;;;22.40;83.20;;;;;;5032980;28;20041;-50
2021/06/28 00:51:47;;;;;;;12.18;10.98;;;22.30;83.40;;;;;;5033231;28;20034;-57
2021/06/28 00:54:13;;;;;;;12.23;10.57;;;22.30;83.80;;;;;;5015667;28;20091;-51
2021/06/28 00:56:38;;;;;;;10.02;9.13;;;22.30;83.70;;;;;;5015323;28;20041;-54
2021/06/28 00:59:06;;;;;;;10.43;9.43;;;22.30;83.70;;;;;;5033070;28;20103;-51
2021/06/28 01:01:31;;;;;;;10.75;9.73;;;22.30;84.20;;;;;;5033244;28;20029;-50
2021/06/28 01:03:57;;;;;;;12.55;11.30;;;22.40;84.60;;;;;;5033289;28;20076;-53
2021/06/28 01:06:23;;;;;;;11.57;10.38;;;22.30;84.70;;;;;;5032498;28;20076;-51
2021/06/28 01:08:49;;;;;;;12.43;11.23;;;22.40;83.70;;;;;;5032544;28;20469;-53
2021/06/28 01:11:14;;;;;;;12.27;11.07;;;22.30;84.10;;;;;;5031386;28;20409;-55
2021/06/28 01:13:41;;;;;;;11.90;10.70;;;22.30;84.10;;;;;;5033040;28;20030;-51
2021/06/28 01:16:07;;;;;;;11.63;10.57;;;22.30;83.90;;;;;;5032159;28;20037;-54
2021/06/28 01:18:33;;;;;;;11.35;10.25;;;22.20;84.60;;;;;;5032504;28;20550;-53
2021/06/28 01:21:00;;;;;;;11.23;10.05;;;22.10;85.50;;;;;;5015009;28;20029;-55
2021/06/28 01:23:32;;;;;;;11.35;10.25;;;22.10;85.00;;;;;;5032246;28;20033;-50
2021/06/28 01:26:08;;;;;;;11.32;10.23;;;22.10;85.30;;;;;;5032097;28;20044;-49
2021/06/28 01:28:35;;;;;;;10.50;9.50;;;22.20;85.50;;;;;;5032381;28;20025;-51
2021/06/28 01:31:03;;;;;;;10.35;9.25;;;22.10;86.30;;;;;;5032063;28;20033;-56
2021/06/28 01:33:29;;;;;;;9.52;8.55;;;22.20;85.90;;;;;;5032446;28;20037;-52
2021/06/28 01:35:55;;;;;;;10.10;8.35;;;22.10;86.00;;;;;;5032075;28;20029;-60
2021/06/28 01:38:21;;;;;;;10.48;9.57;;;22.30;86.30;;;;;;5031636;28;20432;-55
2021/06/28 01:40:47;;;;;;;10.50;9.20;;;22.30;86.50;;;;;;5032068;28;20574;-52
2021/06/28 01:43:13;;;;;;;10.75;9.65;;;22.40;86.90;;;;;;5030584;28;20029;-53
2021/06/28 01:45:39;;;;;;;10.65;9.65;;;22.30;87.30;;;;;;5031444;28;20079;-57
2021/06/28 01:48:06;;;;;;;10.30;9.07;;;22.20;87.60;;;;;;5032399;28;20040;-52
2021/06/28 01:50:37;;;;;;;10.15;9.15;;;22.10;87.80;;;;;;5032159;28;20144;-54
2021/06/28 01:53:03;;;;;;;10.27;9.27;;;22.10;87.70;;;;;;5031766;28;20029;-50
2021/06/28 01:55:29;;;;;;;9.98;8.98;;;22.10;87.50;;;;;;5032050;28;20018;-55
2021/06/28 01:57:58;;;;;;;9.68;8.70;;;22.10;87.20;;;;;;5031400;28;20032;-52
2021/06/28 02:00:35;;;;;;;9.88;8.88;;;22.10;86.90;;;;;;5031971;28;20065;-54
2021/06/28 02:03:13;;;;;;;10.35;9.45;;;22.10;86.40;;;;;;5032090;28;20037;-53
2021/06/28 02:05:48;;;;;;;10.05;9.05;;;22.20;86.40;;;;;;5031827;28;20381;-60
2021/06/28 02:08:16;;;;;;;10.77;9.43;;;22.30;86.90;;;;;;5031644;28;20507;-54
2021/06/28 02:10:49;;;;;;;9.88;8.93;;;22.20;87.40;;;;;;5031717;28;20031;-59
2021/06/28 02:13:16;;;;;;;9.75;8.85;;;22.10;87.50;;;;;;5030886;28;20014;-55
2021/06/28 02:15:42;;;;;;;9.80;8.73;;;22.10;87.60;;;;;;5033539;28;20080;-57
2021/06/28 02:18:07;;;;;;;9.52;8.63;;;22.10;87.30;;;;;;5037294;28;20598;-55
2021/06/28 02:20:33;;;;;;;9.55;8.60;;;22.10;87.40;;;;;;5034140;28;20037;-52
2021/06/28 02:23:29;;;;;;;8.98;7.57;;;22.10;87.40;;;;;;5035600;28;20030;-54
2021/06/28 02:26:15;;;;;;;9.85;8.85;;;22.10;87.50;;;;;;5035822;28;20045;-54
2021/06/28 02:28:46;;;;;;;9.07;8.18;;;22.10;87.70;;;;;;5035355;28;20045;-55
2021/06/28 02:31:14;;;;;;;9.20;8.40;;;22.10;88.00;;;;;;5035288;28;20037;-53
2021/06/28 02:33:41;;;;;;;10.75;9.57;;;22.20;88.40;;;;;;5016160;28;20025;-53
2021/06/28 02:36:08;;;;;;;9.75;8.73;;;22.20;88.30;;;;;;5035431;28;20040;-53
2021/06/28 02:38:35;;;;;;;9.15;8.30;;;22.20;88.10;;;;;;5022038;28;20589;-51
2021/06/28 02:41:02;;;;;;;9.93;9.02;;;22.10;88.30;;;;;;5035510;28;20493;-53
2021/06/28 02:43:29;;;;;;;10.32;8.20;;;22.10;88.60;;;;;;5035572;28;20025;-55
2021/06/28 02:45:55;;;;;;;9.25;8.32;;;22.00;88.80;;;;;;5036014;28;20025;-59
2021/06/28 02:48:20;;;;;;;10.30;8.82;;;22.10;88.80;;;;;;5035461;28;20039;-55
2021/06/28 02:50:47;;;;;;;9.18;8.32;;;22.10;88.30;;;;;;5018243;28;20022;-51
2021/06/28 02:53:16;;;;;;;9.43;8.57;;;22.10;87.80;;;;;;5035098;28;20029;-60
2021/06/28 02:55:43;;;;;;;9.35;8.50;;;22.10;86.90;;;;;;5035018;28;20030;-52
2021/06/28 02:58:08;;;;;;;10.43;8.63;;;22.10;87.00;;;;;;5035477;28;20076;-55
2021/06/28 03:00:34;;;;;;;9.05;8.23;;;22.10;88.20;;;;;;5017106;28;20021;-56
2021/06/28 03:02:59;;;;;;;9.38;8.40;;;22.00;87.70;;;;;;5017720;28;20116;-57
2021/06/28 03:05:26;;;;;;;9.80;8.80;;;22.00;87.90;;;;;;5035278;28;20033;-54
2021/06/28 03:07:52;;;;;;;9.05;8.15;;;22.00;88.30;;;;;;5035068;28;20025;-55
2021/06/28 03:10:17;;;;;;;9.82;8.93;;;22.10;88.10;;;;;;5035188;28;20045;-55
2021/06/28 03:12:43;;;;;;;9.68;8.80;;;22.00;87.90;;;;;;5035221;28;20523;-53
2021/06/28 03:15:14;;;;;;;9.48;8.43;;;22.00;87.80;;;;;;5034731;28;20596;-57
2021/06/28 03:17:40;;;;;;;9.02;8.20;;;22.10;87.60;;;;;;5034796;28;20469;-59
2021/06/28 03:20:08;;;;;;;12.48;9.10;;;22.00;87.00;;;;;;5035085;28;20120;-58
2021/06/28 03:22:34;;;;;;;13.50;10.73;;;21.90;87.60;;;;;;5034323;28;20036;-57
2021/06/28 03:25:00;;;;;;;20.17;16.40;;;21.90;88.20;;;;;;5034671;28;20033;-55
2021/06/28 03:27:26;;;;;;;18.65;14.60;;;21.90;88.50;;;;;;5034244;28;20397;-58
2021/06/28 03:29:51;;;;;;;13.02;11.63;;;22.00;88.60;;;;;;5037741;28;20393;-53
2021/06/28 03:32:17;;;;;;;11.20;10.07;;;22.00;88.70;;;;;;5036612;28;20445;-52
2021/06/28 03:34:43;;;;;;;9.90;8.48;;;22.00;88.40;;;;;;5018087;28;20108;-52
2021/06/28 03:37:08;;;;;;;10.75;9.00;;;22.00;88.50;;;;;;5036864;28;20040;-57
2021/06/28 03:39:34;;;;;;;11.13;9.75;;;22.00;88.40;;;;;;5035816;28;20104;-53
2021/06/28 03:42:00;;;;;;;10.63;9.52;;;22.00;88.10;;;;;;5034045;28;20036;-51
2021/06/28 03:44:25;;;;;;;15.50;9.73;;;22.00;88.40;;;;;;5034637;28;20048;-50
2021/06/28 03:46:51;;;;;;;10.65;9.43;;;21.90;88.90;;;;;;5034059;28;20036;-54
2021/06/28 03:49:16;;;;;;;11.10;10.05;;;21.90;89.00;;;;;;5016541;28;20056;-56
2021/06/28 03:51:42;;;;;;;12.85;11.18;;;21.90;88.80;;;;;;5034594;28;20045;-51
2021/06/28 03:54:08;;;;;;;12.45;10.68;;;21.90;88.70;;;;;;5034452;28;20040;-54
2021/06/28 03:56:33;;;;;;;10.73;9.63;;;21.80;88.70;;;;;;5033756;28;20033;-52
2021/06/28 03:58:59;;;;;;;11.45;10.35;;;21.70;89.30;;;;;;5034265;28;20026;-54
2021/06/28 04:01:25;;;;;;;15.25;11.02;;;21.80;89.20;;;;;;5034175;28;20036;-58
2021/06/28 04:03:52;;;;;;;15.10;10.52;;;21.80;89.10;;;;;;5033955;28;20373;-54
2021/06/28 04:06:18;;;;;;;10.18;8.90;;;21.80;89.00;;;;;;5033932;28;20105;-52
2021/06/28 04:08:44;;;;;;;9.60;8.55;;;21.90;89.00;;;;;;5033864;28;20088;-52
2021/06/28 04:11:09;;;;;;;10.35;8.82;;;21.90;89.10;;;;;;5033870;28;20034;-51
2021/06/28 04:13:35;;;;;;;9.98;8.98;;;21.90;89.10;;;;;;5033756;28;20029;-50
2021/06/28 04:16:02;;;;;;;9.55;8.52;;;22.00;89.40;;;;;;5033720;28;20148;-50
2021/06/28 04:18:28;;;;;;;9.65;8.75;;;21.90;89.70;;;;;;5033578;28;20526;-52
2021/06/28 04:20:55;;;;;;;10.65;8.43;;;22.00;89.70;;;;;;5033308;28;20061;-54
2021/06/28 04:23:20;;;;;;;10.43;9.30;;;22.00;89.60;;;;;;5024731;28;20060;-55
2021/06/28 04:25:46;;;;;;;10.27;9.00;;;22.10;89.50;;;;;;5033038;28;20068;-50
2021/06/28 04:28:12;;;;;;;10.18;8.55;;;22.10;89.40;;;;;;5033085;28;20072;-57
2021/06/28 04:30:40;;;;;;;10.15;9.25;;;22.20;88.80;;;;;;5015459;28;20026;-56
2021/06/28 04:33:06;;;;;;;10.15;9.18;;;22.20;87.90;;;;;;5033106;28;20414;-54
2021/06/28 04:35:31;;;;;;;11.15;10.07;;;22.20;86.60;;;;;;5033726;28;20068;-55
2021/06/28 04:37:57;;;;;;;9.93;8.95;;;22.20;85.60;;;;;;5032976;28;20401;-53
2021/06/28 04:40:26;;;;;;;11.57;9.25;;;22.20;84.10;;;;;;5033553;28;20071;-54
2021/06/28 04:42:53;;;;;;;10.23;9.25;;;22.30;82.90;;;;;;5033793;28;20041;-55
2021/06/28 04:45:19;;;;;;;10.48;9.38;;;22.40;82.10;;;;;;5033123;28;20029;-52
2021/06/28 04:47:46;;;;;;;10.93;9.10;;;22.40;81.50;;;;;;5033225;28;20034;-52
2021/06/28 04:50:13;;;;;;;10.73;9.20;;;22.40;81.00;;;;;;5015453;28;20026;-56
2021/06/28 04:52:39;;;;;;;10.20;9.18;;;22.40;80.50;;;;;;5033081;28;20025;-55
2021/06/28 04:55:10;;;;;;;9.93;8.95;;;22.40;80.40;;;;;;5015443;28;20038;-51
2021/06/28 04:57:35;;;;;;;9.98;9.10;;;22.50;80.30;;;;;;5015913;28;20037;-56
2021/06/28 05:00:03;;;;;;;10.27;9.23;;;22.50;80.10;;;;;;5032747;28;20041;-56
2021/06/28 05:02:29;;;;;;;13.35;9.13;;;22.60;80.00;;;;;;5033047;28;20393;-52
2021/06/28 05:04:54;;;;;;;13.45;10.10;;;22.60;79.80;;;;;;5033079;28;20040;-56
2021/06/28 05:07:20;;;;;;;12.15;9.00;;;22.70;79.40;;;;;;5032824;28;20438;-55
2021/06/28 05:09:46;;;;;;;11.23;10.02;;;22.80;79.10;;;;;;5016311;28;20029;-56
2021/06/28 05:12:12;;;;;;;11.23;10.07;;;22.90;78.90;;;;;;5015860;28;20064;-51
2021/06/28 05:14:39;;;;;;;11.50;10.43;;;22.90;78.70;;;;;;5033203;28;20370;-49
2021/06/28 05:17:07;;;;;;;11.52;10.43;;;22.90;78.40;;;;;;5032261;28;20026;-59
2021/06/28 05:19:34;;;;;;;13.60;10.60;;;22.90;78.20;;;;;;5015053;28;20452;-53
2021/06/28 05:21:59;;;;;;;12.00;10.90;;;23.00;78.20;;;;;;5032354;28;20041;-51
2021/06/28 05:24:25;;;;;;;10.90;9.80;;;23.10;78.30;;;;;;5033079;28;20030;-55
2021/06/28 05:26:51;;;;;;;11.95;10.77;;;23.10;78.30;;;;;;5032285;28;20037;-56
2021/06/28 05:29:16;;;;;;;12.20;11.02;;;23.20;78.30;;;;;;5032269;28;20065;-54
2021/06/28 05:31:42;;;;;;;13.77;11.27;;;23.20;78.10;;;;;;5015318;28;20037;-52
2021/06/28 05:34:07;;;;;;;11.77;10.35;;;23.20;78.00;;;;;;5026003;28;20061;-54
2021/06/28 05:36:34;;;;;;;15.85;12.43;;;23.20;78.00;;;;;;5031788;28;20025;-57
2021/06/28 05:39:00;;;;;;;12.52;10.30;;;23.30;78.20;;;;;;5032342;28;20435;-51
2021/06/28 05:41:26;;;;;;;13.80;11.27;;;23.20;78.30;;;;;;5032399;28;20030;-52
2021/06/28 05:43:52;;;;;;;11.80;10.50;;;23.20;78.50;;;;;;5032628;28;20033;-50
2021/06/28 05:46:17;;;;;;;14.95;13.43;;;23.20;78.40;;;;;;5032404;28;20083;-55
2021/06/28 05:48:43;;;;;;;14.65;13.13;;;23.30;78.70;;;;;;5033392;28;20028;-55
2021/06/28 05:51:09;;;;;;;17.15;14.70;;;23.30;77.60;;;;;;5032087;28;20460;-56
2021/06/28 05:53:35;;;;;;;22.13;13.27;;;23.40;77.30;;;;;;5032995;28;20037;-52
2021/06/28 05:56:02;;;;;;;12.98;11.68;;;23.40;76.90;;;;;;5032412;28;20033;-52
2021/06/28 05:58:29;;;;;;;15.10;11.27;;;23.50;77.20;;;;;;5032743;28;20042;-54
2021/06/28 06:00:59;;;;;;;11.82;10.60;;;23.50;77.20;;;;;;5032614;28;20393;-51
2021/06/28 06:03:25;;;;;;;11.88;10.40;;;23.50;77.10;;;;;;5032734;28;20025;-54
2021/06/28 06:05:52;;;;;;;12.07;10.23;;;23.60;77.00;;;;;;5032361;28;20084;-55
2021/06/28 06:08:23;;;;;;;13.05;11.75;;;23.60;77.00;;;;;;5032306;28;20030;-59
2021/06/28 06:10:52;;;;;;;11.80;10.27;;;23.60;76.90;;;;;;5049924;28;20502;-56
2021/06/28 06:13:18;;;;;;;12.35;9.18;;;23.80;76.60;;;;;;5032985;28;20108;-57
2021/06/28 06:15:44;;;;;;;10.80;9.75;;;23.80;77.00;;;;;;5032906;28;20625;-55
2021/06/28 06:18:10;;;;;;;15.23;10.85;;;23.90;76.60;;;;;;5034269;28;20492;-58
2021/06/28 06:20:35;;;;;;;11.05;9.65;;;24.00;76.50;;;;;;5036474;28;20030;-51
2021/06/28 06:23:01;;;;;;;13.48;10.25;;;23.90;76.30;;;;;;5031925;28;20403;-54
2021/06/28 06:25:26;;;;;;;18.75;10.40;;;23.80;76.70;;;;;;5033089;28;20156;-54
2021/06/28 06:27:52;;;;;;;11.85;9.38;;;23.90;76.90;;;;;;5031435;28;20045;-53
2021/06/28 06:30:18;;;;;;;11.63;10.45;;;23.90;76.90;;;;;;5026624;28;20064;-53
2021/06/28 06:32:43;;;;;;;18.05;13.55;;;24.10;76.40;;;;;;5014162;28;20053;-56
2021/06/28 06:35:09;;;;;;;15.95;12.27;;;24.20;76.20;;;;;;5036281;28;20112;-55
2021/06/28 06:37:35;;;;;;;13.40;11.90;;;24.30;76.00;;;;;;5031308;28;20042;-56
2021/06/28 06:40:01;;;;;;;13.02;11.48;;;24.40;75.50;;;;;;5031799;28;20033;-52
2021/06/28 06:42:27;;;;;;;13.38;11.18;;;24.40;75.60;;;;;;5027188;28;20029;-56
2021/06/28 06:44:52;;;;;;;13.10;11.75;;;24.50;75.60;;;;;;5030219;28;20057;-56
2021/06/28 06:47:20;;;;;;;16.88;13.57;;;24.50;75.60;;;;;;5010682;28;20109;-56
2021/06/28 06:49:45;;;;;;;15.30;12.45;;;24.60;75.40;;;;;;4993549;28;20056;-56
2021/06/28 06:52:11;;;;;;;13.52;12.13;;;24.60;75.70;;;;;;5014129;28;20057;-53
2021/06/28 06:54:36;;;;;;;28.50;20.90;;;24.80;74.90;;;;;;5017797;28;20039;-53
2021/06/28 06:57:02;;;;;;;19.08;13.88;;;24.90;74.60;;;;;;5012919;28;20488;-53
2021/06/28 06:59:28;;;;;;;15.95;12.20;;;25.10;74.00;;;;;;5014107;28;20049;-57
2021/06/28 07:01:53;;;;;;;17.15;14.70;;;25.10;73.50;;;;;;4994588;28;20042;-57
2021/06/28 07:04:19;;;;;;;12.57;11.35;;;25.20;73.40;;;;;;5014999;28;20042;-57
2021/06/28 07:06:45;;;;;;;14.05;10.95;;;25.10;73.70;;;;;;5014608;28;20037;-54
2021/06/28 07:09:11;;;;;;;12.27;10.30;;;25.10;73.70;;;;;;5014112;28;20030;-56
2021/06/28 07:11:36;;;;;;;11.63;9.30;;;25.00;73.40;;;;;;5015291;28;20030;-56
2021/06/28 07:14:02;;;;;;;12.00;9.90;;;24.90;73.40;;;;;;5014467;28;20030;-55
2021/06/28 07:16:30;;;;;;;10.55;9.45;;;24.90;73.50;;;;;;4996824;28;20125;-56
2021/06/28 07:19:01;;;;;;;11.18;9.80;;;24.90;73.50;;;;;;5029131;28;20026;-53
2021/06/28 07:21:27;;;;;;;10.73;9.57;;;24.90;73.70;;;;;;5034777;28;20040;-54
2021/06/28 07:23:53;;;;;;;10.73;9.02;;;25.00;73.90;;;;;;5032809;28;20060;-55
2021/06/28 07:26:20;;;;;;;9.88;8.98;;;25.00;74.10;;;;;;5034107;28;20025;-53
2021/06/28 07:28:46;;;;;;;16.58;10.30;;;25.10;74.00;;;;;;5020709;28;20113;-54
2021/06/28 07:31:12;;;;;;;10.68;9.50;;;25.20;73.70;;;;;;5014738;28;20036;-55
2021/06/28 07:33:40;;;;;;;12.07;9.88;;;25.30;73.60;;;;;;5031242;28;20389;-58
2021/06/28 07:36:07;;;;;;;10.52;9.40;;;25.40;73.70;;;;;;5034503;28;20565;-51
2021/06/28 07:38:32;;;;;;;9.35;8.40;;;25.40;73.70;;;;;;5035515;28;20033;-54
2021/06/28 07:40:58;;;;;;;10.20;8.50;;;25.50;73.90;;;;;;5034438;28;20160;-53
2021/06/28 07:43:24;;;;;;;10.10;9.20;;;25.60;73.50;;;;;;5035218;28;20042;-56
2021/06/28 07:45:49;;;;;;;10.00;9.00;;;25.70;73.30;;;;;;5031307;28;20036;-55
2021/06/28 07:48:15;;;;;;;13.02;8.23;;;25.80;72.70;;;;;;5034918;28;20021;-54
2021/06/28 07:50:43;;;;;;;13.18;9.02;;;26.00;72.50;;;;;;5035825;28;20033;-54
2021/06/28 07:53:08;;;;;;;9.07;8.23;;;26.10;72.10;;;;;;5015209;28;20033;-59
2021/06/28 07:55:35;;;;;;;9.10;8.15;;;26.20;72.00;;;;;;5033822;28;20032;-57
2021/06/28 07:58:01;;;;;;;11.60;8.48;;;26.30;71.70;;;;;;5033709;28;20048;-57
2021/06/28 08:00:26;;;;;;;8.85;8.05;;;26.40;71.40;;;;;;5034076;28;20033;-55
2021/06/28 08:02:52;;;;;;;11.48;8.10;;;26.50;70.70;;;;;;5026772;28;20108;-56
2021/06/28 08:05:17;;;;;;;9.57;7.75;;;26.50;70.80;;;;;;5013940;28;20413;-55
2021/06/28 08:07:43;;;;;;;9.85;7.78;;;26.60;70.50;;;;;;5007546;28;20504;-54
2021/06/28 08:10:12;;;;;;;8.45;7.60;;;26.70;70.20;;;;;;5030897;28;20040;-59
2021/06/28 08:12:40;;;;;;;8.20;7.40;;;26.80;70.00;;;;;;5020167;28;20077;-57
2021/06/28 08:15:07;;;;;;;7.78;7.15;;;26.80;69.60;;;;;;5017100;28;20049;-54
2021/06/28 08:17:32;;;;;;;8.25;7.55;;;26.80;69.10;;;;;;5027831;28;20041;-60
2021/06/28 08:19:58;;;;;;;8.38;7.57;;;26.90;69.00;;;;;;5029448;28;20037;-54
2021/06/28 08:22:23;;;;;;;7.85;7.15;;;26.90;68.90;;;;;;5027609;28;20139;-57
2021/06/28 08:24:49;;;;;;;7.97;7.18;;;26.90;68.40;;;;;;5030434;28;20136;-57
2021/06/28 08:27:15;;;;;;;8.07;7.30;;;27.00;68.20;;;;;;5030851;28;20117;-58
2021/06/28 08:29:42;;;;;;;7.10;6.45;;;27.10;67.90;;;;;;5016052;28;20033;-57
2021/06/28 08:32:08;;;;;;;8.15;7.35;;;27.10;67.70;;;;;;5010493;28;20080;-55
2021/06/28 08:34:33;;;;;;;9.20;8.23;;;27.20;68.00;;;;;;5015672;28;20034;-57
2021/06/28 08:37:00;;;;;;;9.55;7.22;;;27.30;67.60;;;;;;5031566;28;20148;-58
2021/06/28 08:39:28;;;;;;;7.90;7.10;;;27.40;67.60;;;;;;5012387;28;20037;-58
2021/06/28 08:41:55;;;;;;;8.43;7.63;;;27.40;67.50;;;;;;5015851;28;20488;-54
2021/06/28 08:44:22;;;;;;;8.70;7.95;;;27.40;67.80;;;;;;5030273;28;20025;-51
2021/06/28 08:46:48;;;;;;;9.73;7.95;;;27.50;67.50;;;;;;5033952;28;20485;-55
2021/06/28 08:49:14;;;;;;;10.57;7.93;;;27.50;66.90;;;;;;5015852;28;20120;-56
2021/06/28 08:51:40;;;;;;;9.32;8.48;;;27.50;66.80;;;;;;5032950;28;20089;-56
2021/06/28 08:54:09;;;;;;;9.85;8.38;;;27.60;67.00;;;;;;5031095;28;20033;-54
2021/06/28 08:56:37;;;;;;;9.82;8.55;;;27.70;67.30;;;;;;5011043;28;20513;-59
2021/06/28 08:59:04;;;;;;;8.90;8.07;;;27.70;67.10;;;;;;5032644;28;20437;-58
2021/06/28 09:01:32;;;;;;;9.70;8.90;;;27.80;66.80;;;;;;5033337;28;20041;-57
2021/06/28 09:03:57;;;;;;;8.68;7.85;;;27.90;66.20;;;;;;5033171;28;20056;-54
2021/06/28 09:06:25;;;;;;;11.48;8.00;;;28.00;65.40;;;;;;5032728;28;20045;-56
2021/06/28 09:08:59;;;;;;;9.82;8.82;;;28.00;65.60;;;;;;5033453;28;20487;-51
2021/06/28 09:11:27;;;;;;;10.93;8.45;;;27.90;65.90;;;;;;5033041;28;20140;-53
2021/06/28 09:13:54;;;;;;;9.70;8.70;;;28.10;65.40;;;;;;5034430;28;20386;-56
2021/06/28 09:16:29;;;;;;;8.63;7.78;;;28.30;65.00;;;;;;5033559;28;20033;-56
2021/06/28 09:19:10;;;;;;;8.65;7.78;;;28.30;63.90;;;;;;5033574;28;20044;-53
2021/06/28 09:21:40;;;;;;;8.15;7.32;;;28.50;64.00;;;;;;5030523;28;20029;-59
2021/06/28 09:24:21;;;;;;;8.52;7.72;;;28.50;63.50;;;;;;5024298;28;20032;-58
2021/06/28 09:26:47;;;;;;;8.75;7.68;;;28.50;62.90;;;;;;5029372;28;20046;-55
2021/06/28 09:29:12;;;;;;;8.48;7.68;;;28.50;62.80;;;;;;5012430;28;20057;-54
2021/06/28 09:31:46;;;;;;;7.75;6.95;;;28.60;62.10;;;;;;5019786;28;20033;-57
2021/06/28 09:34:13;;;;;;;8.98;7.30;;;28.60;61.70;;;;;;5022617;28;20044;-54
2021/06/28 09:36:47;;;;;;;15.43;7.85;;;28.60;62.00;;;;;;5031490;28;20041;-55
2021/06/28 09:39:16;;;;;;;8.30;7.22;;;28.80;62.30;;;;;;5028634;28;20022;-52
2021/06/28 09:41:45;;;;;;;7.70;7.00;;;28.80;61.20;;;;;;5012178;28;20029;-57
2021/06/28 09:44:10;;;;;;;7.85;6.75;;;28.80;60.30;;;;;;5012594;28;20033;-56
2021/06/28 09:46:37;;;;;;;7.82;6.90;;;28.90;60.20;;;;;;5011800;28;20026;-55
2021/06/28 09:49:04;;;;;;;7.40;6.70;;;29.00;60.10;;;;;;5012082;28;20022;-57
2021/06/28 09:51:32;;;;;;;11.70;7.28;;;29.20;60.20;;;;;;5012591;28;20034;-57
2021/06/28 09:54:07;;;;;;;8.57;7.30;;;29.30;60.60;;;;;;5022456;28;20037;-54
2021/06/28 09:56:42;;;;;;;11.25;6.75;;;29.20;60.10;;;;;;5025185;28;20029;-56
2021/06/28 09:59:24;;;;;;;14.93;7.55;;;29.10;60.50;;;;;;5007975;28;20044;-57
2021/06/28 10:01:52;;;;;;;7.63;6.82;;;29.10;60.20;;;;;;5029553;28;20455;-54
2021/06/28 10:04:50;;;;;;;7.28;6.53;;;29.10;60.20;;;;;;5032389;28;20032;-56
2021/06/28 10:07:24;;;;;;;7.32;6.53;;;29.20;59.60;;;;;;5021314;28;20034;-53
2021/06/28 10:10:24;;;;;;;9.13;7.97;;;29.40;58.90;;;;;;5031880;28;20038;-57
2021/06/28 10:12:52;;;;;;;9.82;7.50;;;29.50;59.20;;;;;;5032090;28;20029;-56
2021/06/28 10:15:23;;;;;;;7.60;6.90;;;29.50;59.50;;;;;;5013339;28;20022;-55
2021/06/28 10:17:49;;;;;;;9.85;7.38;;;29.60;59.00;;;;;;5031249;28;20097;-54
2021/06/28 10:20:18;;;;;;;9.25;7.15;;;29.60;59.60;;;;;;5034732;28;20072;-58
2021/06/28 10:22:46;;;;;;;8.35;6.28;;;29.50;59.40;;;;;;5031909;28;20040;-57
2021/06/28 10:25:14;;;;;;;8.60;6.68;;;29.60;58.30;;;;;;5031120;28;20029;-59
2021/06/28 10:27:40;;;;;;;10.60;9.50;;;29.50;57.80;;;;;;5031492;28;20038;-57
2021/06/28 10:30:09;;;;;;;8.48;7.65;;;29.40;57.80;;;;;;5031135;28;20044;-56
2021/06/28 10:32:36;;;;;;;7.25;6.55;;;29.50;58.20;;;;;;5031123;28;20504;-54
2021/06/28 10:35:03;;;;;;;8.77;6.57;;;29.60;58.00;;;;;;5031220;28;20033;-61
2021/06/28 10:37:34;;;;;;;7.15;6.40;;;29.70;58.50;;;;;;5042740;28;20117;-52
2021/06/28 10:40:22;;;;;;;7.82;7.03;;;29.70;57.80;;;;;;5020037;28;20113;-54
2021/06/28 10:42:55;;;;;;;7.70;6.68;;;29.80;57.50;;;;;;5035051;28;20041;-56
2021/06/28 10:45:42;;;;;;;7.32;6.72;;;29.90;57.40;;;;;;5035275;28;20046;-51
2021/06/28 10:48:17;;;;;;;8.60;7.43;;;29.90;58.40;;;;;;5034863;28;20041;-56
2021/06/28 10:50:51;;;;;;;8.43;6.70;;;29.70;58.00;;;;;;5035108;28;20029;-51
2021/06/28 10:53:19;;;;;;;12.27;6.97;;;29.80;58.10;;;;;;5034978;28;20037;-59
2021/06/28 10:55:44;;;;;;;7.72;7.03;;;29.90;57.90;;;;;;5034699;28;20373;-51
2021/06/28 10:58:30;;;;;;;10.00;7.50;;;30.00;57.50;;;;;;5035260;28;20032;-57
2021/06/28 11:00:59;;;;;;;7.53;6.82;;;30.00;57.60;;;;;;5034180;28;20100;-54
2021/06/28 11:03:26;;;;;;;7.43;6.72;;;29.90;57.70;;;;;;5016941;28;20028;-55
2021/06/28 11:06:18;;;;;;;7.15;6.45;;;29.70;57.70;;;;;;5034608;28;20033;-53
2021/06/28 11:08:59;;;;;;;7.28;6.55;;;29.70;57.70;;;;;;5034872;28;20020;-56
2021/06/28 11:11:46;;;;;;;8.82;6.60;;;29.90;58.00;;;;;;5014910;28;20033;-56
2021/06/28 11:14:21;;;;;;;10.98;6.63;;;30.10;57.30;;;;;;5027958;28;20501;-51
2021/06/28 11:17:09;;;;;;;7.13;6.53;;;30.20;57.30;;;;;;5021866;28;20022;-56
2021/06/28 11:22:28;;;;;;;6.65;6.15;;;29.90;57.70;;;;;;5031869;28;20033;-56
2021/06/28 11:25:09;;;;;;;7.68;6.07;;;30.00;57.40;;;;;;5012565;28;20128;-53
2021/06/28 11:27:59;;;;;;;7.10;5.65;;;30.00;56.80;;;;;;5025949;28;20037;-56
2021/06/28 11:30:30;;;;;;;9.60;6.45;;;30.00;55.90;;;;;;5018062;28;20443;-55
2021/06/28 11:32:58;;;;;;;8.52;6.25;;;29.70;57.20;;;;;;5029798;28;20026;-56
2021/06/28 11:35:33;;;;;;;6.95;6.25;;;29.90;56.40;;;;;;5032400;28;20051;-54
2021/06/28 11:38:16;;;;;;;6.60;6.10;;;30.10;56.20;;;;;;5032973;28;20052;-53
2021/06/28 11:40:43;;;;;;;7.20;6.50;;;30.30;55.40;;;;;;5032780;28;20033;-54
2021/06/28 11:43:10;;;;;;;6.97;6.00;;;30.20;55.30;;;;;;5031917;28;20592;-55
2021/06/28 11:45:51;;;;;;;8.00;6.28;;;30.20;55.90;;;;;;5032154;28;20413;-53
2021/06/28 11:48:37;;;;;;;7.85;5.90;;;30.20;56.60;;;;;;5031377;28;20366;-55
2021/06/28 11:51:24;;;;;;;7.47;6.25;;;30.20;55.20;;;;;;5017846;28;20046;-55
2021/06/28 11:53:53;;;;;;;6.97;6.32;;;30.40;55.70;;;;;;5033132;28;20571;-55
2021/06/28 11:56:23;;;;;;;9.70;8.70;;;30.50;55.50;;;;;;5031704;28;20045;-55
2021/06/28 11:58:57;;;;;;;7.68;6.82;;;30.70;55.00;;;;;;5031931;28;20025;-58
2021/06/28 12:01:31;;;;;;;7.03;6.38;;;31.00;54.90;;;;;;5013912;28;20052;-56
2021/06/28 12:03:58;;;;;;;8.55;6.18;;;31.10;53.90;;;;;;5014605;28;20073;-56
2021/06/28 12:06:29;;;;;;;6.80;6.20;;;31.30;53.40;;;;;;5031110;28;20055;-58
2021/06/28 12:09:22;;;;;;;7.28;6.68;;;31.40;53.00;;;;;;5011245;28;20050;-56
2021/06/28 12:11:54;;;;;;;15.15;5.80;;;31.50;53.30;;;;;;5031710;28;20084;-54
2021/06/28 12:14:38;;;;;;;6.68;6.00;;;31.40;53.00;;;;;;5010652;28;20045;-56
2021/06/28 12:17:15;;;;;;;6.60;5.97;;;30.90;53.70;;;;;;5031305;28;20516;-57
2021/06/28 12:19:46;;;;;;;6.55;5.95;;;30.60;54.20;;;;;;5032003;28;20072;-57
2021/06/28 12:22:16;;;;;;;6.65;5.65;;;30.70;54.10;;;;;;5031310;28;20044;-58
2021/06/28 12:24:44;;;;;;;6.15;5.55;;;30.60;53.70;;;;;;5013209;28;20026;-55
2021/06/28 12:27:16;;;;;;;6.43;5.70;;;30.40;53.90;;;;;;5013453;28;20056;-58
2021/06/28 12:29:49;;;;;;;6.50;5.88;;;30.20;53.70;;;;;;5031304;28;20132;-54
2021/06/28 12:32:20;;;;;;;6.15;5.55;;;29.90;54.30;;;;;;5028056;28;20056;-55
2021/06/28 12:34:49;;;;;;;12.30;6.13;;;29.70;54.60;;;;;;5019861;28;20556;-57
2021/06/28 12:37:21;;;;;;;6.75;5.72;;;29.80;55.00;;;;;;5021747;28;20057;-57
2021/06/28 12:39:48;;;;;;;6.43;5.82;;;29.80;54.80;;;;;;5033539;28;20345;-56
2021/06/28 12:42:19;;;;;;;6.40;5.80;;;29.70;54.80;;;;;;5033833;28;20045;-54
2021/06/28 12:44:47;;;;;;;6.43;5.85;;;29.60;55.30;;;;;;5033804;28;20021;-57
2021/06/28 12:47:16;;;;;;;7.07;6.05;;;29.70;55.50;;;;;;5032732;28;20026;-55